createdAt,value
2023-01-17T00:02:01.934Z,9.40
2023-01-17T00:04:47.363Z,8.82
2023-01-17T00:07:34.068Z,8.60
2023-01-17T00:10:04.360Z,8.70
2023-01-17T00:12:30.978Z,9.68
2023-01-17T00:14:58.607Z,9.82
2023-01-17T00:17:26.659Z,10.65
2023-01-17T00:20:11.732Z,11.65
2023-01-17T00:22:56.567Z,12.32
2023-01-17T00:25:44.489Z,9.95
2023-01-17T00:28:10.926Z,13.55
2023-01-17T00:30:37.285Z,12.18
2023-01-17T00:33:03.796Z,11.32
2023-01-17T00:35:31.775Z,11.73
2023-01-17T00:38:11.913Z,12.63
2023-01-17T00:40:39.764Z,13.15
2023-01-17T00:43:25.347Z,14.05
2023-01-17T00:46:10.855Z,14.80
2023-01-17T00:48:56.437Z,13.05
2023-01-17T00:51:43.485Z,12.98
2023-01-17T00:54:28.942Z,11.75
2023-01-17T00:57:14.366Z,10.98
2023-01-17T00:59:59.344Z,10.02
2023-01-17T01:02:44.722Z,8.75
2023-01-17T01:05:31.488Z,10.07
2023-01-17T01:08:16.954Z,9.85
2023-01-17T01:11:02.355Z,9.45
2023-01-17T01:13:47.991Z,7.45
2023-01-17T01:16:33.393Z,9.68
2023-01-17T01:19:18.297Z,9.70
2023-01-17T01:22:03.573Z,10.60
2023-01-17T01:24:49.249Z,11.02
2023-01-17T01:27:34.196Z,10.57
2023-01-17T01:30:19.324Z,12.02
2023-01-17T01:33:04.016Z,9.65
2023-01-17T01:35:30.514Z,10.27
2023-01-17T01:37:56.913Z,9.65
2023-01-17T01:40:23.298Z,10.82
2023-01-17T01:42:53.881Z,10.35
2023-01-17T01:45:25.846Z,10.88
2023-01-17T01:47:56.576Z,10.88
2023-01-17T01:50:23.281Z,10.10
2023-01-17T01:52:53.648Z,8.77
2023-01-17T01:55:26.821Z,7.53
2023-01-17T01:57:55.556Z,7.60
2023-01-17T02:00:29.681Z,6.05
2023-01-17T02:02:58.225Z,6.55
2023-01-17T02:05:25.684Z,6.20
2023-01-17T02:08:01.652Z,4.65
2023-01-17T02:10:28.396Z,5.10
2023-01-17T02:12:55.893Z,5.60
2023-01-17T02:15:31.862Z,5.57
2023-01-17T02:18:24.321Z,5.50
2023-01-17T02:21:18.034Z,5.10
2023-01-17T02:24:09.260Z,4.68
2023-01-17T02:26:50.010Z,4.47
2023-01-17T02:29:34.779Z,6.10
2023-01-17T02:32:07.078Z,5.28
2023-01-17T02:37:16.976Z,2.83
2023-01-17T02:39:50.876Z,2.38
2023-01-17T02:42:19.654Z,1.58
2023-01-17T02:44:46.015Z,1.52
2023-01-17T02:47:24.994Z,1.70
2023-01-17T02:49:53.735Z,1.10
2023-01-17T02:52:26.127Z,1.35
2023-01-17T02:55:14.671Z,1.50
2023-01-17T02:57:59.097Z,1.20
2023-01-17T03:00:42.265Z,1.20
2023-01-17T03:03:27.114Z,1.65
2023-01-17T03:05:53.379Z,4.07
2023-01-17T03:08:20.286Z,1.73
2023-01-17T03:10:46.969Z,2.97
2023-01-17T03:13:13.776Z,15.85
2023-01-17T03:15:40.582Z,2.80
2023-01-17T03:18:11.504Z,2.60
2023-01-17T03:20:37.922Z,3.05
2023-01-17T03:23:04.287Z,2.88
2023-01-17T03:25:30.692Z,2.67
2023-01-17T03:27:57.070Z,1.75
2023-01-17T03:30:23.511Z,2.25
2023-01-17T03:32:49.969Z,1.88
2023-01-17T03:35:16.376Z,1.40
2023-01-17T03:37:42.936Z,1.67
2023-01-17T03:40:09.768Z,1.50
2023-01-17T03:42:36.271Z,1.33
2023-01-17T03:45:02.704Z,1.33
2023-01-17T03:47:29.108Z,1.33
2023-01-17T03:49:55.469Z,1.75
2023-01-17T03:52:21.821Z,1.38
2023-01-17T03:54:48.607Z,2.38
2023-01-17T03:57:15.611Z,2.25
2023-01-17T03:59:41.973Z,2.08
2023-01-17T04:02:08.550Z,2.60
2023-01-17T04:04:35.008Z,3.00
2023-01-17T04:07:01.398Z,3.92
2023-01-17T04:09:27.787Z,4.07
2023-01-17T04:11:54.140Z,5.07
2023-01-17T04:14:20.518Z,5.47
2023-01-17T04:16:46.978Z,4.78
2023-01-17T04:19:13.868Z,6.45
2023-01-17T04:21:40.304Z,7.70
2023-01-17T04:24:06.998Z,7.40
2023-01-17T04:26:33.371Z,8.82
2023-01-17T04:28:59.753Z,8.95
2023-01-17T04:31:26.264Z,9.52
2023-01-17T04:33:52.712Z,10.00
2023-01-17T04:36:19.088Z,9.30
2023-01-17T04:38:45.535Z,10.48
2023-01-17T04:41:11.972Z,9.98
2023-01-17T04:43:38.436Z,11.75
2023-01-17T04:46:09.799Z,11.27
2023-01-17T04:48:36.722Z,12.73
2023-01-17T04:51:04.336Z,11.98
2023-01-17T04:53:31.017Z,12.63
2023-01-17T04:55:57.786Z,12.95
2023-01-17T04:58:24.242Z,13.73
2023-01-17T05:00:51.683Z,10.27
2023-01-17T05:03:19.300Z,16.90
2023-01-17T05:05:45.849Z,18.65
2023-01-17T05:08:12.317Z,15.68
2023-01-17T05:10:38.713Z,18.45
2023-01-17T05:13:05.265Z,16.42
2023-01-17T05:15:31.964Z,16.63
2023-01-17T05:17:58.406Z,14.65
2023-01-17T05:20:26.419Z,14.35
2023-01-17T05:22:56.921Z,13.07
2023-01-17T05:25:24.835Z,12.57
2023-01-17T05:27:51.549Z,12.07
2023-01-17T05:30:18.659Z,11.68
2023-01-17T05:32:52.795Z,11.32
2023-01-17T05:35:21.131Z,10.00
2023-01-17T05:37:49.256Z,10.30
2023-01-17T05:40:28.058Z,10.23
2023-01-17T05:42:56.365Z,10.25
2023-01-17T05:45:24.884Z,9.60
2023-01-17T05:47:53.102Z,9.27
2023-01-17T05:50:21.672Z,11.07
2023-01-17T05:52:55.956Z,9.68
2023-01-17T05:55:23.215Z,10.43
2023-01-17T05:57:50.227Z,10.90
2023-01-17T06:00:17.505Z,10.38
2023-01-17T06:02:45.279Z,11.20
2023-01-17T06:05:11.851Z,11.90
2023-01-17T06:07:38.265Z,10.90
2023-01-17T06:10:05.333Z,12.40
2023-01-17T06:12:32.190Z,12.52
2023-01-17T06:14:58.627Z,12.88
2023-01-17T06:17:24.996Z,14.30
2023-01-17T06:19:51.377Z,13.93
2023-01-17T06:22:17.741Z,13.75
2023-01-17T06:24:44.152Z,15.80
2023-01-17T06:27:10.678Z,16.55
2023-01-17T06:29:37.589Z,14.55
2023-01-17T06:32:04.181Z,13.75
2023-01-17T06:34:30.926Z,14.95
2023-01-17T06:36:57.400Z,13.23
2023-01-17T06:39:23.764Z,15.10
2023-01-17T06:41:50.223Z,13.70
2023-01-17T06:44:16.598Z,13.20
2023-01-17T06:46:43.373Z,14.82
2023-01-17T06:49:09.883Z,15.27
2023-01-17T06:51:36.264Z,15.05
2023-01-17T06:54:02.635Z,14.65
2023-01-17T06:56:31.653Z,14.15
2023-01-17T06:58:58.038Z,13.55
2023-01-17T07:01:24.974Z,14.05
2023-01-17T07:03:52.412Z,13.57
2023-01-17T07:06:18.910Z,14.60
2023-01-17T07:08:45.605Z,13.55
2023-01-17T07:11:12.010Z,13.30
2023-01-17T07:13:38.405Z,13.57
2023-01-17T07:16:06.110Z,13.18
2023-01-17T07:18:33.216Z,13.05
2023-01-17T07:20:59.636Z,13.65
2023-01-17T07:23:26.165Z,14.43
2023-01-17T07:26:00.108Z,14.02
2023-01-17T07:28:27.719Z,14.30
2023-01-17T07:30:54.553Z,14.60
2023-01-17T07:33:21.470Z,13.35
2023-01-17T07:35:47.871Z,11.80
2023-01-17T07:38:16.241Z,13.98
2023-01-17T07:40:42.760Z,14.30
2023-01-17T07:43:16.502Z,14.25
2023-01-17T07:45:44.514Z,14.20
2023-01-17T07:48:11.553Z,14.90
2023-01-17T07:50:38.551Z,14.32
2023-01-17T07:53:05.365Z,14.63
2023-01-17T07:55:31.962Z,14.32
2023-01-17T07:57:58.446Z,15.88
2023-01-17T08:00:27.461Z,15.60
2023-01-17T08:02:58.032Z,17.63
2023-01-17T08:05:25.186Z,16.52
2023-01-17T08:07:51.982Z,18.70
2023-01-17T08:10:18.893Z,18.88
2023-01-17T08:12:49.839Z,18.85
2023-01-17T08:15:17.596Z,18.17
2023-01-17T08:17:48.095Z,19.05
2023-01-17T08:20:15.583Z,17.60
2023-01-17T08:22:42.127Z,18.63
2023-01-17T08:25:09.177Z,16.55
2023-01-17T08:27:36.295Z,15.52
2023-01-17T08:30:03.450Z,16.08
2023-01-17T08:32:29.823Z,15.18
2023-01-17T08:34:57.091Z,14.60
2023-01-17T08:37:23.764Z,15.05
2023-01-17T08:39:50.141Z,16.80
2023-01-17T08:42:16.607Z,16.17
2023-01-17T08:44:43.574Z,16.67
2023-01-17T08:47:10.196Z,15.57
2023-01-17T08:49:36.762Z,16.65
2023-01-17T08:52:03.389Z,16.83
2023-01-17T08:54:29.801Z,16.05
2023-01-17T08:56:56.189Z,15.32
2023-01-17T08:59:22.640Z,16.52
2023-01-17T09:01:49.187Z,15.98
2023-01-17T09:04:15.831Z,14.85
2023-01-17T09:06:45.317Z,15.75
2023-01-17T09:09:11.715Z,16.17
2023-01-17T09:11:38.597Z,15.68
2023-01-17T09:14:05.140Z,15.73
2023-01-17T09:16:31.974Z,16.65
2023-01-17T09:18:58.916Z,15.32
2023-01-17T09:21:26.226Z,15.07
2023-01-17T09:23:53.400Z,16.55
2023-01-17T09:26:25.704Z,15.40
2023-01-17T09:31:20.916Z,17.48
2023-01-17T09:33:51.868Z,16.88
2023-01-17T09:36:18.374Z,16.70
2023-01-17T09:38:44.837Z,15.63
2023-01-17T09:41:22.088Z,15.32
2023-01-17T09:43:56.005Z,14.77
2023-01-17T09:46:29.554Z,15.77
2023-01-17T09:49:08.870Z,17.92
2023-01-17T09:51:36.019Z,17.58
2023-01-17T09:54:02.498Z,16.83
2023-01-17T09:56:32.749Z,18.73
2023-01-17T09:59:11.779Z,18.02
2023-01-17T10:02:03.196Z,19.67
2023-01-17T10:04:41.794Z,18.77
2023-01-17T10:07:19.651Z,18.33
2023-01-17T10:09:59.936Z,18.23
2023-01-17T10:12:48.079Z,16.02
2023-01-17T10:15:28.701Z,13.93
2023-01-17T10:18:29.508Z,15.60
2023-01-17T10:20:56.100Z,15.93
2023-01-17T10:23:41.157Z,14.30
2023-01-17T10:26:26.771Z,14.70
2023-01-17T10:28:56.678Z,15.60
2023-01-17T10:31:28.022Z,16.17
2023-01-17T10:34:06.060Z,14.53
2023-01-17T10:36:37.906Z,17.17
2023-01-17T10:39:15.913Z,17.42
2023-01-17T10:41:44.008Z,12.95
2023-01-17T10:44:33.222Z,12.77
2023-01-17T10:47:07.283Z,12.13
2023-01-17T10:49:33.721Z,11.95
2023-01-17T10:52:06.410Z,11.88
2023-01-17T10:54:56.524Z,11.32
2023-01-17T10:57:25.219Z,12.25
2023-01-17T10:59:52.528Z,13.02
2023-01-17T11:02:23.378Z,13.60
2023-01-17T11:04:54.232Z,14.02
2023-01-17T11:07:23.314Z,14.27
2023-01-17T11:09:54.540Z,13.93
2023-01-17T11:12:28.102Z,14.05
2023-01-17T11:14:59.935Z,13.38
2023-01-17T11:17:27.460Z,14.98
2023-01-17T11:19:54.477Z,14.57
2023-01-17T11:22:21.133Z,12.95
2023-01-17T11:24:51.469Z,13.52
2023-01-17T11:27:29.621Z,12.80
2023-01-17T11:30:07.194Z,12.77
2023-01-17T11:32:34.369Z,11.90
2023-01-17T11:35:09.800Z,12.25
2023-01-17T11:37:36.728Z,12.55
2023-01-17T11:40:23.607Z,13.15
2023-01-17T11:43:03.290Z,13.13
2023-01-17T11:45:32.343Z,13.75
2023-01-17T11:48:07.851Z,12.57
2023-01-17T11:50:37.432Z,14.27
2023-01-17T11:53:21.811Z,11.20
2023-01-17T11:56:09.201Z,12.45
2023-01-17T11:58:41.307Z,12.75
2023-01-17T12:01:18.044Z,12.82
2023-01-17T12:04:00.934Z,12.15
2023-01-17T12:06:47.812Z,12.80
2023-01-17T12:09:36.257Z,11.93
2023-01-17T12:12:30.299Z,12.38
2023-01-17T12:15:06.324Z,12.15
2023-01-17T12:17:54.367Z,13.30
2023-01-17T12:20:52.462Z,12.20
2023-01-17T12:23:43.660Z,11.55
2023-01-17T12:26:30.221Z,12.38
2023-01-17T12:29:23.216Z,11.65
2023-01-17T12:32:13.895Z,10.23
2023-01-17T12:34:47.015Z,10.80
2023-01-17T12:37:39.126Z,11.55
2023-01-17T12:40:32.416Z,10.88
2023-01-17T12:43:14.471Z,9.60
2023-01-17T12:45:45.744Z,9.35
2023-01-17T12:48:16.071Z,10.20
2023-01-17T12:50:48.939Z,10.70
2023-01-17T12:53:24.411Z,9.07
2023-01-17T12:56:04.183Z,10.10
2023-01-17T12:58:36.757Z,8.85
2023-01-17T13:01:15.661Z,9.07
2023-01-17T13:04:16.400Z,10.25
2023-01-17T13:06:53.559Z,8.43
2023-01-17T13:09:22.920Z,8.57
2023-01-17T13:12:00.190Z,9.23
2023-01-17T13:14:27.841Z,9.00
2023-01-17T13:17:18.947Z,8.13
2023-01-17T13:19:51.075Z,8.57
2023-01-17T13:25:25.100Z,7.50
2023-01-17T13:28:03.872Z,5.50
2023-01-17T13:30:59.155Z,6.45
2023-01-17T13:33:34.034Z,6.15
2023-01-17T13:36:29.701Z,5.85
2023-01-17T13:39:20.924Z,5.70
2023-01-17T13:41:51.484Z,5.35
2023-01-17T13:44:27.141Z,6.47
2023-01-17T13:47:04.232Z,5.78
2023-01-17T13:49:33.170Z,5.15
2023-01-17T13:52:05.497Z,5.28
2023-01-17T13:54:33.295Z,4.82
2023-01-17T13:57:29.877Z,4.80
2023-01-17T13:59:57.995Z,5.30
2023-01-17T14:02:33.379Z,4.60
2023-01-17T14:05:08.400Z,4.60
2023-01-17T14:07:37.173Z,5.95
2023-01-17T14:10:22.589Z,5.57
2023-01-17T14:12:49.385Z,6.38
2023-01-17T14:15:20.713Z,6.07
2023-01-17T14:17:51.534Z,6.40
2023-01-17T14:20:18.769Z,5.07
2023-01-17T14:22:51.806Z,5.68
2023-01-17T14:25:19.763Z,5.20
2023-01-17T14:28:03.330Z,3.95
2023-01-17T14:30:36.548Z,4.47
2023-01-17T14:33:05.765Z,4.05
2023-01-17T14:35:37.632Z,5.38
2023-01-17T14:38:15.406Z,5.68
2023-01-17T14:41:02.715Z,5.10
2023-01-17T14:43:32.830Z,5.00
2023-01-17T14:46:02.359Z,5.18
2023-01-17T14:48:29.043Z,5.35
2023-01-17T14:50:59.849Z,4.70
2023-01-17T14:53:30.483Z,5.00
2023-01-17T14:55:58.379Z,4.80
2023-01-17T14:58:27.219Z,4.55
2023-01-17T15:00:57.826Z,5.93
2023-01-17T15:03:24.500Z,5.50
2023-01-17T15:05:52.926Z,6.32
2023-01-17T15:08:22.326Z,6.15
2023-01-17T15:10:56.140Z,6.70
2023-01-17T15:13:43.148Z,6.70
2023-01-17T15:16:17.712Z,6.57
2023-01-17T15:18:44.174Z,6.05
2023-01-17T15:21:16.015Z,5.40
2023-01-17T15:24:03.727Z,5.70
2023-01-17T15:26:34.367Z,5.60
2023-01-17T15:29:07.354Z,6.28
2023-01-17T15:31:42.964Z,5.40
2023-01-17T15:34:26.866Z,5.80
2023-01-17T15:36:54.279Z,6.38
2023-01-17T15:39:23.655Z,5.05
2023-01-17T15:41:54.883Z,4.80
2023-01-17T15:44:47.097Z,5.28
2023-01-17T15:47:28.410Z,5.32
2023-01-17T15:49:54.804Z,5.25
2023-01-17T15:52:21.695Z,5.65
2023-01-17T15:54:53.383Z,5.30
2023-01-17T15:57:25.425Z,5.60
2023-01-17T16:00:22.314Z,5.68
2023-01-17T16:02:55.105Z,5.30
2023-01-17T16:05:24.787Z,5.50
2023-01-17T16:07:56.017Z,5.20
2023-01-17T16:10:28.651Z,5.70
2023-01-17T16:12:56.090Z,5.97
2023-01-17T16:15:25.864Z,5.15
2023-01-17T16:17:55.987Z,6.47
2023-01-17T16:20:33.076Z,4.97
2023-01-17T16:23:00.521Z,5.57
2023-01-17T16:25:32.257Z,5.03
2023-01-17T16:27:59.485Z,5.07
2023-01-17T16:30:28.999Z,5.45
2023-01-17T16:32:56.620Z,5.93
2023-01-17T16:35:25.465Z,6.10
2023-01-17T16:37:57.021Z,6.15
2023-01-17T16:40:25.594Z,5.95
2023-01-17T16:42:52.064Z,7.85
2023-01-17T16:45:18.790Z,6.97
2023-01-17T16:47:46.611Z,7.40
2023-01-17T16:50:14.965Z,7.43
2023-01-17T16:52:41.514Z,7.82
2023-01-17T16:55:13.699Z,7.90
2023-01-17T16:57:40.313Z,8.05
2023-01-17T17:00:07.566Z,8.45
2023-01-17T17:02:34.029Z,8.40
2023-01-17T17:05:00.493Z,9.80
2023-01-17T17:07:26.875Z,9.93
2023-01-17T17:09:53.270Z,8.98
2023-01-17T17:12:19.658Z,9.50
2023-01-17T17:14:46.068Z,9.40
2023-01-17T17:17:12.488Z,7.82
2023-01-17T17:19:38.884Z,8.25
2023-01-17T17:22:06.431Z,7.28
2023-01-17T17:24:33.192Z,7.05
2023-01-17T17:26:59.589Z,6.38
2023-01-17T17:29:26.011Z,6.30
2023-01-17T17:31:53.591Z,7.88
2023-01-17T17:34:20.648Z,8.88
2023-01-17T17:36:47.039Z,9.27
2023-01-17T17:39:17.095Z,8.52
2023-01-17T17:41:45.496Z,7.60
2023-01-17T17:44:12.543Z,7.30
2023-01-17T17:46:39.054Z,7.85
2023-01-17T17:49:06.637Z,6.32
2023-01-17T17:51:35.160Z,6.53
2023-01-17T17:54:06.512Z,6.82
2023-01-17T17:56:34.629Z,6.63
2023-01-17T17:59:02.488Z,7.88
2023-01-17T18:01:29.344Z,8.63
2023-01-17T18:03:57.662Z,8.07
2023-01-17T18:06:24.091Z,8.35
2023-01-17T18:08:51.922Z,7.72
2023-01-17T18:11:23.889Z,9.23
2023-01-17T18:13:51.927Z,9.10
2023-01-17T18:16:32.879Z,8.73
2023-01-17T18:18:59.723Z,8.90
2023-01-17T18:21:31.116Z,10.30
2023-01-17T18:24:00.086Z,10.85
2023-01-17T18:26:28.829Z,10.50
2023-01-17T18:28:56.617Z,9.52
2023-01-17T18:31:29.989Z,11.07
2023-01-17T18:34:04.385Z,11.35
2023-01-17T18:36:31.146Z,8.98
2023-01-17T18:38:57.645Z,8.77
2023-01-17T18:41:29.218Z,8.75
2023-01-17T18:43:56.088Z,7.13
2023-01-17T18:46:22.880Z,7.72
2023-01-17T18:48:49.323Z,8.68
2023-01-17T18:51:17.750Z,8.15
2023-01-17T18:53:45.475Z,9.20
2023-01-17T18:56:14.435Z,9.10
2023-01-17T18:58:42.793Z,8.02
2023-01-17T19:01:19.115Z,10.43
2023-01-17T19:03:47.583Z,9.40
2023-01-17T19:06:18.024Z,10.10
2023-01-17T19:08:45.044Z,12.68
2023-01-17T19:11:12.090Z,12.75
2023-01-17T19:13:39.433Z,12.82
2023-01-17T19:16:14.756Z,13.85
2023-01-17T19:18:41.780Z,12.63
2023-01-17T19:21:15.710Z,12.05
2023-01-17T19:23:43.434Z,13.98
2023-01-17T19:26:11.031Z,13.10
2023-01-17T19:28:39.060Z,12.75
2023-01-17T19:31:14.105Z,12.50
2023-01-17T19:33:43.499Z,12.00
2023-01-17T19:36:17.064Z,12.20
2023-01-17T19:38:52.283Z,12.88
2023-01-17T19:41:27.173Z,13.75
2023-01-17T19:43:55.343Z,13.23
2023-01-17T19:46:22.329Z,14.80
2023-01-17T19:48:48.685Z,14.40
2023-01-17T19:51:16.001Z,13.57
2023-01-17T19:53:42.509Z,14.43
2023-01-17T19:56:14.577Z,14.93
2023-01-17T19:58:41.925Z,15.35
2023-01-17T20:01:24.614Z,13.65
2023-01-17T20:03:51.491Z,13.90
2023-01-17T20:06:20.288Z,12.43
2023-01-17T20:08:46.825Z,13.82
2023-01-17T20:11:15.948Z,14.55
2023-01-17T20:13:42.490Z,16.75
2023-01-17T20:16:11.227Z,16.58
2023-01-17T20:18:37.801Z,17.80
2023-01-17T20:21:04.789Z,17.30
2023-01-17T20:23:35.747Z,18.33
2023-01-17T20:26:04.436Z,17.77
2023-01-17T20:28:33.170Z,18.75
2023-01-17T20:31:09.114Z,20.08
2023-01-17T20:33:36.255Z,18.73
2023-01-17T20:36:10.109Z,39.60
2023-01-17T20:38:44.697Z,32.00
2023-01-17T20:41:14.208Z,27.48
2023-01-17T20:43:44.974Z,25.83
2023-01-17T20:46:11.990Z,23.83
2023-01-17T20:48:44.228Z,26.20
2023-01-17T20:53:38.807Z,23.42
2023-01-17T20:56:06.024Z,22.92
2023-01-17T20:58:33.948Z,22.63
2023-01-17T21:01:01.041Z,20.63
2023-01-17T21:03:33.213Z,19.15
2023-01-17T21:06:05.076Z,19.60
2023-01-17T21:08:33.256Z,18.42
2023-01-17T21:10:59.903Z,16.92
2023-01-17T21:13:26.772Z,16.90
2023-01-17T21:15:53.892Z,18.15
2023-01-17T21:18:21.887Z,16.20
2023-01-17T21:20:48.668Z,19.05
2023-01-17T21:23:17.996Z,20.02
2023-01-17T21:26:05.035Z,18.75
2023-01-17T21:28:33.883Z,18.98
2023-01-17T21:31:00.445Z,19.13
2023-01-17T21:33:29.261Z,16.95
2023-01-17T21:35:55.669Z,16.33
2023-01-17T21:38:22.039Z,16.85
2023-01-17T21:40:48.421Z,17.00
2023-01-17T21:43:15.044Z,16.83
2023-01-17T21:45:42.086Z,17.35
2023-01-17T21:48:13.523Z,19.38
2023-01-17T21:50:39.944Z,18.73
2023-01-17T21:53:06.985Z,19.42
2023-01-17T21:55:51.999Z,19.75
2023-01-17T21:58:36.769Z,17.38
2023-01-17T22:01:17.725Z,17.20
2023-01-17T22:03:49.411Z,17.45
2023-01-17T22:06:15.916Z,19.17
2023-01-17T22:08:42.408Z,19.13
2023-01-17T22:11:11.428Z,18.98
2023-01-17T22:13:38.991Z,21.77
2023-01-17T22:16:07.760Z,23.38
2023-01-17T22:18:38.861Z,25.95
2023-01-17T22:21:16.751Z,28.65
2023-01-17T22:23:53.253Z,29.35
2023-01-17T22:26:21.518Z,29.48
2023-01-17T22:28:48.220Z,29.15
2023-01-17T22:31:20.797Z,27.52
2023-01-17T22:33:48.139Z,27.83
2023-01-17T22:36:15.169Z,26.95
2023-01-17T22:38:42.553Z,24.63
2023-01-17T22:41:13.016Z,27.15
2023-01-17T22:43:42.006Z,28.52
2023-01-17T22:46:10.164Z,24.98
2023-01-17T22:48:37.812Z,26.70
2023-01-17T22:51:06.015Z,26.80
2023-01-17T22:53:32.976Z,25.52
2023-01-17T22:56:04.403Z,24.92
2023-01-17T22:58:31.371Z,20.63
2023-01-17T23:01:05.502Z,21.27
2023-01-17T23:03:32.801Z,19.58
2023-01-17T23:06:12.465Z,19.98
2023-01-17T23:08:40.493Z,26.83
2023-01-17T23:11:39.324Z,25.33
2023-01-17T23:14:14.853Z,23.95
2023-01-17T23:17:03.030Z,24.17
2023-01-17T23:19:32.747Z,25.85
2023-01-17T23:22:18.762Z,26.42
2023-01-17T23:24:52.245Z,25.27
2023-01-17T23:27:52.552Z,22.95
2023-01-17T23:30:25.696Z,21.30
2023-01-17T23:32:57.388Z,21.02
2023-01-17T23:35:26.803Z,21.05
2023-01-17T23:38:28.573Z,19.92
2023-01-17T23:41:22.525Z,20.67
2023-01-17T23:43:52.650Z,19.80
2023-01-17T23:46:19.351Z,20.45
2023-01-17T23:48:45.736Z,19.63
2023-01-17T23:51:12.140Z,22.23
2023-01-17T23:53:39.442Z,22.85
2023-01-17T23:56:23.036Z,26.88
2023-01-17T23:58:49.480Z,26.08
